Galena, Ohio
Current Conditions -  °F | °C
As of 8:57 PM on Saturday 25 Oct 2014 (Local Time) from KDLZ Reporting Station
Clear Clear  
Wind Chill: 59°   Ceiling: Unl
Heat Index: 59°   Visibility: 10mi
Dew Point: 37°   Wind: 12mph
Humidity: 45%   Direction: 300°WNW
Pressure: 29.87"   Gusts: 16mph
Location:  40.22°N, 82.88°W
Report Text: KDLZ 260057Z AUTO 30010G14KT 10SM CLR 15/03 A2987 RMK AO2
Loading
Personal Weather Stations






























Interactive Weather Map
Tropical Storm Tracking
New forecast layout! Learn more

10-Day Weather Forecast

Advertisements
Track Severe Weather on mobile